createdAt,value
2022-12-17T00:00:44.464Z,1007.2
2022-12-17T00:02:00.749Z,1007.1
2022-12-17T00:03:17.056Z,1007.1
2022-12-17T00:04:33.356Z,1007.2
2022-12-17T00:05:48.653Z,1007.1
2022-12-17T00:08:21.252Z,1007.2
2022-12-17T00:09:37.550Z,1007.2
2022-12-17T00:10:53.851Z,1007.3
2022-12-17T00:12:10.144Z,1007.2
2022-12-17T00:13:26.430Z,1007.3
2022-12-17T00:14:42.726Z,1007.2
2022-12-17T00:15:59.023Z,1007.2
2022-12-17T00:17:15.309Z,1007.3
2022-12-17T00:18:31.622Z,1007.4
2022-12-17T00:19:47.906Z,1007.3
2022-12-17T00:21:04.200Z,1007.4
2022-12-17T00:22:19.515Z,1007.3
2022-12-17T00:23:35.809Z,1007.4
2022-12-17T00:24:52.109Z,1007.3
2022-12-17T00:26:08.399Z,1007.4
2022-12-17T00:27:24.691Z,1007.4
2022-12-17T00:28:40.994Z,1007.4
2022-12-17T00:29:57.295Z,1007.4
2022-12-17T00:31:13.588Z,1007.4
2022-12-17T00:32:29.869Z,1007.4
2022-12-17T00:35:02.467Z,1007.5
2022-12-17T00:36:18.771Z,1007.5
2022-12-17T00:37:35.055Z,1007.5
2022-12-17T00:38:50.371Z,1007.5
2022-12-17T00:40:06.672Z,1007.5
2022-12-17T00:41:22.966Z,1007.6
2022-12-17T00:42:39.257Z,1007.6
2022-12-17T00:43:55.553Z,1007.6
2022-12-17T00:45:11.849Z,1007.5
2022-12-17T00:46:28.140Z,1007.6
2022-12-17T00:47:44.450Z,1007.5
2022-12-17T00:49:00.731Z,1007.6
2022-12-17T00:50:17.037Z,1007.6
2022-12-17T00:51:33.323Z,1007.6
2022-12-17T00:52:49.612Z,1007.7
2022-12-17T00:54:05.917Z,1007.6
2022-12-17T00:55:21.222Z,1007.7
2022-12-17T00:56:37.512Z,1007.7
2022-12-17T00:57:53.824Z,1007.6
2022-12-17T00:59:10.108Z,1007.6
2022-12-17T01:00:26.414Z,1007.6
2022-12-17T01:01:42.694Z,1007.6
2022-12-17T01:02:58.998Z,1007.6
2022-12-17T01:04:15.282Z,1007.6
2022-12-17T01:05:31.590Z,1007.7
2022-12-17T01:06:47.892Z,1007.8
2022-12-17T01:08:04.167Z,1007.8
2022-12-17T01:09:20.468Z,1007.6
2022-12-17T01:10:36.775Z,1007.7
2022-12-17T01:11:52.084Z,1007.7
2022-12-17T01:13:08.382Z,1007.7
2022-12-17T01:14:24.681Z,1007.7
2022-12-17T01:15:40.963Z,1007.7
2022-12-17T01:16:57.259Z,1007.7
2022-12-17T01:18:13.545Z,1007.7
2022-12-17T01:19:29.840Z,1007.7
2022-12-17T01:20:46.132Z,1007.8
2022-12-17T01:22:02.000Z,1007.7
2022-12-17T01:23:18.726Z,1007.7
2022-12-17T01:24:35.022Z,1007.8
2022-12-17T01:25:51.327Z,1007.9
2022-12-17T01:27:07.629Z,1007.8
2022-12-17T01:28:22.920Z,1007.9
2022-12-17T01:29:39.232Z,1007.8
2022-12-17T01:30:55.513Z,1007.9
2022-12-17T01:32:11.817Z,1007.9
2022-12-17T01:33:28.121Z,1007.8
2022-12-17T01:34:44.400Z,1007.8
2022-12-17T01:36:00.701Z,1007.9
2022-12-17T01:37:16.993Z,1007.8
2022-12-17T01:38:33.288Z,1007.9
2022-12-17T01:39:49.581Z,1007.8
2022-12-17T01:41:05.874Z,1007.9
2022-12-17T01:42:22.181Z,1007.9
2022-12-17T01:43:38.475Z,1007.9
2022-12-17T01:44:53.802Z,1007.9
2022-12-17T01:46:10.083Z,1007.9
2022-12-17T01:47:26.371Z,1007.9
2022-12-17T01:48:42.664Z,1008.1
2022-12-17T01:49:58.972Z,1007.9
2022-12-17T01:51:15.267Z,1007.9
2022-12-17T01:52:31.563Z,1007.9
2022-12-17T01:53:47.867Z,1008.1
2022-12-17T01:55:04.154Z,1007.9
2022-12-17T01:56:20.446Z,1008
2022-12-17T01:57:36.735Z,1008
2022-12-17T01:58:53.028Z,1008
2022-12-17T02:00:09.325Z,1008
2022-12-17T02:01:24.631Z,1008.1
2022-12-17T02:02:40.000Z,1008
2022-12-17T02:03:57.238Z,1008.1
2022-12-17T02:05:13.534Z,1008.1
2022-12-17T02:06:29.827Z,1008
2022-12-17T02:07:46.120Z,1008.1
2022-12-17T02:09:02.406Z,1008
2022-12-17T02:10:18.708Z,1008.1
2022-12-17T02:11:34.995Z,1008.1
2022-12-17T02:14:07.586Z,1008.2
2022-12-17T02:15:23.896Z,1008.2
2022-12-17T02:16:40.188Z,1008.2
2022-12-17T02:17:55.494Z,1008.1
2022-12-17T02:19:11.779Z,1008.2
2022-12-17T02:20:28.080Z,1008.2
2022-12-17T02:21:44.374Z,1008.1
2022-12-17T02:23:00.671Z,1008.2
2022-12-17T02:24:16.973Z,1008.2
2022-12-17T02:25:32.285Z,1008.2
2022-12-17T02:26:48.571Z,1008.2
2022-12-17T02:28:04.885Z,1008.3
2022-12-17T02:29:21.188Z,1008.2
2022-12-17T02:30:37.459Z,1008.2
2022-12-17T02:31:53.759Z,1008.1
2022-12-17T02:33:10.054Z,1008.3
2022-12-17T02:34:26.356Z,1008.2
2022-12-17T02:35:42.640Z,1008.2
2022-12-17T02:36:58.950Z,1008.3
2022-12-17T02:38:15.245Z,1008.2
2022-12-17T02:39:31.526Z,1008.2
2022-12-17T02:40:47.831Z,1008.2
2022-12-17T02:42:03.150Z,1008.2
2022-12-17T02:43:19.431Z,1008.2
2022-12-17T02:44:35.729Z,1008.2
2022-12-17T02:45:52.028Z,1008.2
2022-12-17T02:47:08.319Z,1008.3
2022-12-17T02:48:24.614Z,1008.2
2022-12-17T02:49:40.907Z,1008.3
2022-12-17T02:50:57.197Z,1008.3
2022-12-17T02:52:13.492Z,1008.5
2022-12-17T02:53:29.789Z,1008.3
2022-12-17T02:54:46.085Z,1008.3
2022-12-17T02:56:02.379Z,1008.3
2022-12-17T02:57:18.691Z,1008.3
2022-12-17T02:58:33.991Z,1008.4
2022-12-17T02:59:50.280Z,1008.4
2022-12-17T03:01:06.587Z,1008.3
2022-12-17T03:02:22.881Z,1008.4
2022-12-17T03:03:39.177Z,1008.3
2022-12-17T03:04:55.480Z,1008.4
2022-12-17T03:06:11.769Z,1008.4
2022-12-17T03:07:28.052Z,1008.5
2022-12-17T03:08:44.352Z,1008.4
2022-12-17T03:10:00.652Z,1008.4
2022-12-17T03:11:16.955Z,1008.4
2022-12-17T03:12:33.233Z,1008.4
2022-12-17T03:13:49.537Z,1008.4
2022-12-17T03:15:04.855Z,1008.4
2022-12-17T03:16:21.135Z,1008.5
2022-12-17T03:17:37.449Z,1008.5
2022-12-17T03:18:53.735Z,1008.5
2022-12-17T03:20:10.030Z,1008.5
2022-12-17T03:21:26.318Z,1008.5
2022-12-17T03:22:42.622Z,1008.5
2022-12-17T03:23:58.922Z,1008.6
2022-12-17T03:25:15.201Z,1008.4
2022-12-17T03:26:31.503Z,1008.4
2022-12-17T03:27:47.806Z,1008.5
2022-12-17T03:29:04.088Z,1008.5
2022-12-17T03:30:20.386Z,1008.5
2022-12-17T03:31:35.697Z,1008.5
2022-12-17T03:32:52.000Z,1008.5
2022-12-17T03:34:08.292Z,1008.6
2022-12-17T03:35:24.581Z,1008.6
2022-12-17T03:37:57.177Z,1008.6
2022-12-17T03:39:13.464Z,1008.5
2022-12-17T03:40:29.765Z,1008.6
2022-12-17T03:43:02.366Z,1008.6
2022-12-17T03:44:18.646Z,1008.5
2022-12-17T03:45:34.953Z,1008.6
2022-12-17T03:46:51.236Z,1008.6
2022-12-17T03:48:06.547Z,1008.6
2022-12-17T03:49:22.842Z,1008.6
2022-12-17T03:50:39.153Z,1008.6
2022-12-17T03:51:55.448Z,1008.7
2022-12-17T03:53:11.745Z,1008.7
2022-12-17T03:54:28.033Z,1008.7
2022-12-17T03:55:44.322Z,1008.7
2022-12-17T03:57:00.631Z,1008.6
2022-12-17T03:58:16.908Z,1008.7
2022-12-17T03:59:33.218Z,1008.7
2022-12-17T04:00:49.504Z,1008.7
2022-12-17T04:02:05.811Z,1008.7
2022-12-17T04:03:22.102Z,1008.7
2022-12-17T04:04:37.415Z,1008.7
2022-12-17T04:05:53.707Z,1008.7
2022-12-17T04:07:10.000Z,1008.7
2022-12-17T04:08:26.301Z,1008.7
2022-12-17T04:09:42.588Z,1008.8
2022-12-17T04:10:58.876Z,1008.8
2022-12-17T04:12:15.186Z,1008.9
2022-12-17T04:13:31.473Z,1008.9
2022-12-17T04:14:47.762Z,1008.9
2022-12-17T04:16:04.069Z,1008.9
2022-12-17T04:17:20.370Z,1008.9
2022-12-17T04:18:36.654Z,1008.9
2022-12-17T04:19:52.960Z,1009
2022-12-17T04:21:08.274Z,1009
2022-12-17T04:22:24.554Z,1009
2022-12-17T04:23:40.846Z,1009
2022-12-17T04:24:57.153Z,1009.1
2022-12-17T04:26:13.437Z,1009
2022-12-17T04:27:29.744Z,1009
2022-12-17T04:28:46.039Z,1009
2022-12-17T04:30:02.333Z,1009.1
2022-12-17T04:31:18.620Z,1009.1
2022-12-17T04:32:34.913Z,1009.1
2022-12-17T04:33:51.214Z,1009.2
2022-12-17T04:35:07.517Z,1009.1
2022-12-17T04:36:23.814Z,1009.1
2022-12-17T04:37:39.124Z,1009.1
2022-12-17T04:38:55.408Z,1009.1
2022-12-17T04:40:11.701Z,1009.2
2022-12-17T04:41:28.010Z,1009.2
2022-12-17T04:42:44.304Z,1009.1
2022-12-17T04:44:00.602Z,1009.2
2022-12-17T04:45:16.887Z,1009.2
2022-12-17T04:46:33.179Z,1009.1
2022-12-17T04:47:49.487Z,1009.1
2022-12-17T04:49:05.767Z,1009.1
2022-12-17T04:50:22.071Z,1009.1
2022-12-17T04:51:38.361Z,1009.1
2022-12-17T04:52:54.658Z,1009.2
2022-12-17T04:54:09.970Z,1009.2
2022-12-17T04:55:26.270Z,1009.2
2022-12-17T04:56:42.569Z,1009.2
2022-12-17T04:57:58.855Z,1009.3
2022-12-17T04:59:15.144Z,1009.3
2022-12-17T05:00:31.445Z,1009.3
2022-12-17T05:01:47.742Z,1009.4
2022-12-17T05:03:04.046Z,1009.3
2022-12-17T05:04:20.330Z,1009.4
2022-12-17T05:05:36.633Z,1009.4
2022-12-17T05:06:52.933Z,1009.4
2022-12-17T05:08:09.211Z,1009.5
2022-12-17T05:09:25.517Z,1009.5
2022-12-17T05:10:40.817Z,1009.5
2022-12-17T05:11:57.118Z,1009.5
2022-12-17T05:13:13.409Z,1009.5
2022-12-17T05:14:29.703Z,1009.5
2022-12-17T05:15:46.009Z,1009.5
2022-12-17T05:17:02.293Z,1009.5
2022-12-17T05:18:18.591Z,1009.5
2022-12-17T05:19:34.888Z,1009.6
2022-12-17T05:20:51.197Z,1009.5
2022-12-17T05:22:07.482Z,1009.6
2022-12-17T05:23:23.786Z,1009.6
2022-12-17T05:24:40.073Z,1009.6
2022-12-17T05:25:56.367Z,1009.6
2022-12-17T05:27:11.678Z,1009.6
2022-12-17T05:28:27.982Z,1009.6
2022-12-17T05:29:44.271Z,1009.7
2022-12-17T05:31:00.566Z,1009.6
2022-12-17T05:32:16.855Z,1009.7
2022-12-17T05:33:33.149Z,1009.8
2022-12-17T05:34:49.453Z,1009.7
2022-12-17T05:36:05.754Z,1009.8
2022-12-17T05:37:22.000Z,1009.7
2022-12-17T05:38:38.341Z,1009.7
2022-12-17T05:39:54.631Z,1009.7
2022-12-17T05:41:10.920Z,1009.8
2022-12-17T05:42:27.216Z,1009.7
2022-12-17T05:43:42.526Z,1009.8
2022-12-17T05:44:58.822Z,1009.8
2022-12-17T05:46:15.121Z,1009.7
2022-12-17T05:47:31.423Z,1009.8
2022-12-17T05:48:47.705Z,1009.8
2022-12-17T05:50:04.018Z,1009.8
2022-12-17T05:51:20.310Z,1009.9
2022-12-17T05:52:36.589Z,1009.9
2022-12-17T05:53:52.887Z,1009.9
2022-12-17T05:55:09.193Z,1010
2022-12-17T05:56:25.480Z,1010
2022-12-17T05:57:41.772Z,1010
2022-12-17T05:58:58.067Z,1010
2022-12-17T06:00:13.383Z,1010
2022-12-17T06:01:29.681Z,1010
2022-12-17T06:02:45.983Z,1010.1
2022-12-17T06:04:02.263Z,1010
2022-12-17T06:05:18.559Z,1010
2022-12-17T06:06:34.872Z,1010
2022-12-17T06:07:51.155Z,1010
2022-12-17T06:09:07.455Z,1010.1
2022-12-17T06:10:23.740Z,1010
2022-12-17T06:11:40.052Z,1010.1
2022-12-17T06:12:56.340Z,1010.1
2022-12-17T06:14:12.632Z,1010.1
2022-12-17T06:15:28.931Z,1010.1
2022-12-17T06:16:44.239Z,1010.1
2022-12-17T06:18:00.531Z,1010.1
2022-12-17T06:19:16.836Z,1010.1
2022-12-17T06:20:33.119Z,1010.2
2022-12-17T06:21:49.414Z,1010.2
2022-12-17T06:23:05.719Z,1010.2
2022-12-17T06:24:22.014Z,1010.2
2022-12-17T06:25:38.296Z,1010.2
2022-12-17T06:26:54.598Z,1010.2
2022-12-17T06:28:10.893Z,1010.2
2022-12-17T06:29:27.190Z,1010.2
2022-12-17T06:30:43.481Z,1010.3
2022-12-17T06:31:59.784Z,1010.3
2022-12-17T06:33:15.095Z,1010.3
2022-12-17T06:34:31.392Z,1010.2
2022-12-17T06:35:47.635Z,1010.3
2022-12-17T06:37:03.930Z,1010.3
2022-12-17T06:38:20.170Z,1010.4
2022-12-17T06:39:36.428Z,1010.3
2022-12-17T06:40:51.746Z,1010.3
2022-12-17T06:42:07.989Z,1010.3
2022-12-17T06:43:24.237Z,1010.4
2022-12-17T06:44:40.481Z,1010.4
2022-12-17T06:45:56.723Z,1010.4
2022-12-17T06:47:12.972Z,1010.5
2022-12-17T06:48:29.215Z,1010.5
2022-12-17T06:49:45.448Z,1010.5
2022-12-17T06:51:01.681Z,1010.4
2022-12-17T06:52:17.928Z,1010.5
2022-12-17T06:53:34.176Z,1010.5
2022-12-17T06:54:50.405Z,1010.5
2022-12-17T06:56:06.654Z,1010.5
2022-12-17T06:57:21.902Z,1010.6
2022-12-17T06:58:38.148Z,1010.6
2022-12-17T06:59:54.399Z,1010.6
2022-12-17T07:01:10.630Z,1010.6
2022-12-17T07:02:26.881Z,1010.6
2022-12-17T07:03:43.118Z,1010.7
2022-12-17T07:04:59.350Z,1010.6
2022-12-17T07:06:15.594Z,1010.6
2022-12-17T07:07:31.843Z,1010.6
2022-12-17T07:08:48.076Z,1010.6
2022-12-17T07:10:04.319Z,1010.6
2022-12-17T07:11:20.557Z,1010.6
2022-12-17T07:12:36.802Z,1010.7
2022-12-17T07:13:52.072Z,1010.7
2022-12-17T07:15:08.302Z,1010.7
2022-12-17T07:16:24.545Z,1010.7
2022-12-17T07:17:40.778Z,1010.7
2022-12-17T07:18:57.024Z,1010.9
2022-12-17T07:20:13.274Z,1010.8
2022-12-17T07:21:29.508Z,1010.8
2022-12-17T07:22:45.753Z,1010.9
2022-12-17T07:24:02.003Z,1010.9
2022-12-17T07:25:18.239Z,1010.9
2022-12-17T07:26:34.464Z,1010.9
2022-12-17T07:27:50.716Z,1010.9
2022-12-17T07:29:06.965Z,1010.9
2022-12-17T07:30:22.205Z,1010.9
2022-12-17T07:31:38.448Z,1011
2022-12-17T07:32:54.688Z,1011
2022-12-17T07:34:10.941Z,1011
2022-12-17T07:35:27.168Z,1011
2022-12-17T07:36:43.424Z,1011
2022-12-17T07:37:59.669Z,1011.2
2022-12-17T07:39:15.904Z,1011.1
2022-12-17T07:40:32.152Z,1011.1
2022-12-17T07:41:48.385Z,1011
2022-12-17T07:43:04.618Z,1011
2022-12-17T07:44:20.861Z,1011.1
2022-12-17T07:45:37.115Z,1011
2022-12-17T07:46:52.356Z,1011
2022-12-17T07:48:08.610Z,1011.1
2022-12-17T07:49:24.847Z,1011.1
2022-12-17T07:50:41.087Z,1011.1
2022-12-17T07:51:57.337Z,1011.1
2022-12-17T07:53:13.571Z,1011.1
2022-12-17T07:54:29.809Z,1011.1
2022-12-17T07:55:46.046Z,1011.1
2022-12-17T07:57:02.296Z,1011.1
2022-12-17T07:58:18.543Z,1011.2
2022-12-17T07:59:34.782Z,1011.3
2022-12-17T08:00:51.013Z,1011.2
2022-12-17T08:02:07.257Z,1011.3
2022-12-17T08:03:22.521Z,1011.2
2022-12-17T08:04:38.763Z,1011.3
2022-12-17T08:05:55.001Z,1011.3
2022-12-17T08:07:11.244Z,1011.3
2022-12-17T08:08:27.486Z,1011.4
2022-12-17T08:09:43.719Z,1011.4
2022-12-17T08:10:59.969Z,1011.4
2022-12-17T08:12:16.196Z,1011.5
2022-12-17T08:13:32.455Z,1011.5
2022-12-17T08:14:48.692Z,1011.5
2022-12-17T08:17:21.171Z,1011.6
2022-12-17T08:18:37.420Z,1011.6
2022-12-17T08:19:52.660Z,1011.6
2022-12-17T08:21:08.909Z,1011.6
2022-12-17T08:22:25.144Z,1011.7
2022-12-17T08:23:41.395Z,1011.7
2022-12-17T08:24:57.639Z,1011.8
2022-12-17T08:26:13.880Z,1011.8
2022-12-17T08:27:30.113Z,1011.8
2022-12-17T08:28:46.360Z,1011.8
2022-12-17T08:30:02.586Z,1011.8
2022-12-17T08:31:18.836Z,1011.8
2022-12-17T08:32:35.078Z,1011.8
2022-12-17T08:35:07.560Z,1011.9
2022-12-17T08:36:22.813Z,1011.9
2022-12-17T08:37:39.067Z,1011.9
2022-12-17T08:38:55.310Z,1011.9
2022-12-17T08:40:11.536Z,1011.9
2022-12-17T08:41:27.784Z,1011.9
2022-12-17T08:42:44.035Z,1012
2022-12-17T08:44:00.265Z,1012
2022-12-17T08:45:16.496Z,1012
2022-12-17T08:46:32.753Z,1012
2022-12-17T08:47:48.984Z,1012
2022-12-17T08:49:05.240Z,1012
2022-12-17T08:50:21.475Z,1012.1
2022-12-17T08:51:37.719Z,1012
2022-12-17T08:52:52.977Z,1012.1
2022-12-17T08:54:09.216Z,1012.1
2022-12-17T08:55:25.451Z,1012.1
2022-12-17T08:56:41.000Z,1012.1
2022-12-17T08:57:57.939Z,1012.1
2022-12-17T08:59:14.181Z,1012.1
2022-12-17T09:00:30.419Z,1012.1
2022-12-17T09:01:46.664Z,1012.2
2022-12-17T09:03:02.891Z,1012.2
2022-12-17T09:04:19.134Z,1012.1
2022-12-17T09:05:35.379Z,1012.2
2022-12-17T09:06:51.623Z,1012.2
2022-12-17T09:08:07.856Z,1012.2
2022-12-17T09:09:23.119Z,1012.2
2022-12-17T09:10:39.354Z,1012.2
2022-12-17T09:11:55.603Z,1012.3
2022-12-17T09:13:11.849Z,1012.2
2022-12-17T09:14:28.090Z,1012.2
2022-12-17T09:15:44.328Z,1012.2
2022-12-17T09:17:00.565Z,1012.2
2022-12-17T09:18:16.814Z,1012.3
2022-12-17T09:19:33.042Z,1012.2
2022-12-17T09:20:49.283Z,1012.2
2022-12-17T09:22:05.534Z,1012.2
2022-12-17T09:23:21.776Z,1012.2
2022-12-17T09:24:38.019Z,1012.2
2022-12-17T09:25:53.279Z,1012.2
2022-12-17T09:27:09.523Z,1012.2
2022-12-17T09:28:25.751Z,1012.2
2022-12-17T09:29:42.002Z,1012.2
2022-12-17T09:30:58.242Z,1012.3
2022-12-17T09:32:14.487Z,1012.3
2022-12-17T09:33:30.712Z,1012.4
2022-12-17T09:34:46.966Z,1012.3
2022-12-17T09:36:03.212Z,1012.4
2022-12-17T09:38:35.681Z,1012.3
2022-12-17T09:39:51.933Z,1012.3
2022-12-17T09:41:08.158Z,1012.3
2022-12-17T09:42:23.432Z,1012.3
2022-12-17T09:43:39.658Z,1012.3
2022-12-17T09:44:55.896Z,1012.3
2022-12-17T09:46:12.156Z,1012.4
2022-12-17T09:47:28.396Z,1012.4
2022-12-17T09:48:44.625Z,1012.5
2022-12-17T09:50:00.868Z,1012.4
2022-12-17T09:51:17.111Z,1012.4
2022-12-17T09:52:33.345Z,1012.4
2022-12-17T09:53:49.602Z,1012.4
2022-12-17T09:55:05.844Z,1012.5
2022-12-17T09:56:22.066Z,1012.4
2022-12-17T09:57:38.315Z,1012.5
2022-12-17T09:58:53.565Z,1012.4
2022-12-17T10:00:09.807Z,1012.5
2022-12-17T10:01:26.061Z,1012.5
2022-12-17T10:02:42.290Z,1012.4
2022-12-17T10:03:58.543Z,1012.5
2022-12-17T10:05:14.789Z,1012.5
2022-12-17T10:06:31.024Z,1012.5
2022-12-17T10:07:47.257Z,1012.6
2022-12-17T10:09:03.506Z,1012.5
2022-12-17T10:10:19.752Z,1012.5
2022-12-17T10:11:35.978Z,1012.5
2022-12-17T10:12:52.224Z,1012.5
2022-12-17T10:14:08.469Z,1012.5
2022-12-17T10:15:24.825Z,1012.5
2022-12-17T10:16:41.065Z,1012.6
2022-12-17T10:17:57.304Z,1012.5
2022-12-17T10:19:13.548Z,1012.5
2022-12-17T10:20:29.786Z,1012.7
2022-12-17T10:21:46.031Z,1012.6
2022-12-17T10:23:02.281Z,1012.6
2022-12-17T10:24:18.515Z,1012.6
2022-12-17T10:25:34.757Z,1012.6
2022-12-17T10:26:51.002Z,1012.6
2022-12-17T10:28:07.238Z,1012.6
2022-12-17T10:29:23.475Z,1012.6
2022-12-17T10:30:39.722Z,1012.5
2022-12-17T10:31:54.988Z,1012.5
2022-12-17T10:33:11.226Z,1012.6
2022-12-17T10:34:27.454Z,1012.6
2022-12-17T10:35:43.705Z,1012.6
2022-12-17T10:36:59.934Z,1012.7
2022-12-17T10:38:16.186Z,1012.7
2022-12-17T10:39:32.424Z,1012.7
2022-12-17T10:40:48.677Z,1012.7
2022-12-17T10:42:04.921Z,1012.7
2022-12-17T10:43:21.139Z,1012.7
2022-12-17T10:44:37.393Z,1012.7
2022-12-17T10:45:53.634Z,1012.7
2022-12-17T10:47:09.876Z,1012.7
2022-12-17T10:48:25.121Z,1012.7
2022-12-17T10:49:41.370Z,1012.7
2022-12-17T10:50:57.602Z,1012.7
2022-12-17T10:52:13.852Z,1012.7
2022-12-17T10:53:30.088Z,1012.7
2022-12-17T10:54:46.332Z,1012.7
2022-12-17T10:56:01.602Z,1012.7
2022-12-17T10:57:17.827Z,1012.7
2022-12-17T10:58:34.078Z,1012.7
2022-12-17T10:59:50.323Z,1012.7
2022-12-17T11:01:06.556Z,1012.8
2022-12-17T11:02:22.812Z,1012.8
2022-12-17T11:03:39.034Z,1012.8
2022-12-17T11:04:55.288Z,1012.8
2022-12-17T11:07:27.760Z,1012.8
2022-12-17T11:08:43.998Z,1012.8
2022-12-17T11:10:00.000Z,1012.8
2022-12-17T11:11:16.493Z,1012.9
2022-12-17T11:12:31.748Z,1012.9
2022-12-17T11:13:47.997Z,1013
2022-12-17T11:15:04.234Z,1013
2022-12-17T11:16:20.460Z,1013
2022-12-17T11:17:36.700Z,1013
2022-12-17T11:18:52.949Z,1013
2022-12-17T11:20:09.186Z,1013
2022-12-17T11:21:25.440Z,1013
2022-12-17T11:22:41.666Z,1013
2022-12-17T11:23:57.905Z,1013
2022-12-17T11:25:14.150Z,1013
2022-12-17T11:26:30.397Z,1013
2022-12-17T11:27:46.646Z,1013
2022-12-17T11:29:01.885Z,1013
2022-12-17T11:30:18.144Z,1013
2022-12-17T11:31:34.382Z,1013
2022-12-17T11:32:50.613Z,1013
2022-12-17T11:34:06.850Z,1013
2022-12-17T11:35:23.100Z,1012.9
2022-12-17T11:36:39.338Z,1012.9
2022-12-17T11:37:55.582Z,1012.9
2022-12-17T11:39:11.818Z,1013
2022-12-17T11:40:28.057Z,1013
2022-12-17T11:41:44.295Z,1013
2022-12-17T11:43:00.542Z,1013
2022-12-17T11:44:16.791Z,1013
2022-12-17T11:45:32.034Z,1013
2022-12-17T11:46:48.290Z,1012.9
2022-12-17T11:48:04.524Z,1013
2022-12-17T11:49:20.773Z,1013
2022-12-17T11:50:37.011Z,1013
2022-12-17T11:51:53.248Z,1013
2022-12-17T11:53:09.489Z,1013
2022-12-17T11:54:25.721Z,1013
2022-12-17T11:55:41.981Z,1013.1
2022-12-17T11:56:58.219Z,1013
2022-12-17T11:58:14.463Z,1013.1
2022-12-17T11:59:30.688Z,1013
2022-12-17T12:00:46.937Z,1013.1
2022-12-17T12:02:02.198Z,1013.1
2022-12-17T12:03:18.426Z,1013
2022-12-17T12:04:34.668Z,1013.1
2022-12-17T12:05:50.927Z,1013.1
2022-12-17T12:07:07.154Z,1013.1
2022-12-17T12:08:23.410Z,1013.1
2022-12-17T12:09:39.640Z,1013.1
2022-12-17T12:10:55.884Z,1013.1
2022-12-17T12:12:12.133Z,1013.1
2022-12-17T12:13:28.367Z,1013.1
2022-12-17T12:14:44.607Z,1013.1
2022-12-17T12:16:00.844Z,1013.1
2022-12-17T12:17:17.081Z,1013.2
2022-12-17T12:18:32.333Z,1013.1
2022-12-17T12:19:48.590Z,1013.2
2022-12-17T12:21:04.833Z,1013.1
2022-12-17T12:22:21.076Z,1013.2
2022-12-17T12:23:37.300Z,1013.2
2022-12-17T12:24:53.539Z,1013.2
2022-12-17T12:26:09.794Z,1013.2
2022-12-17T12:27:26.039Z,1013.2
2022-12-17T12:28:42.274Z,1013.2
2022-12-17T12:29:58.517Z,1013.2
2022-12-17T12:31:14.744Z,1013.2
2022-12-17T12:32:30.993Z,1013.3
2022-12-17T12:33:47.226Z,1013.4
2022-12-17T12:35:02.497Z,1013.3
2022-12-17T12:36:18.740Z,1013.3
2022-12-17T12:37:34.968Z,1013.3
2022-12-17T12:38:51.212Z,1013.4
2022-12-17T12:40:07.447Z,1013.3
2022-12-17T12:41:23.706Z,1013.3
2022-12-17T12:42:39.950Z,1013.3
2022-12-17T12:43:56.188Z,1013.3
2022-12-17T12:45:12.415Z,1013.3
2022-12-17T12:46:28.660Z,1013.3
2022-12-17T12:47:44.896Z,1013.2
2022-12-17T12:49:01.141Z,1013.3
2022-12-17T12:50:17.383Z,1013.3
2022-12-17T12:51:32.642Z,1013.3
2022-12-17T12:52:48.874Z,1013.3
2022-12-17T12:54:05.129Z,1013.4
2022-12-17T12:55:21.366Z,1013.4
2022-12-17T12:56:37.603Z,1013.5
2022-12-17T12:57:53.849Z,1013.5
2022-12-17T12:59:10.089Z,1013.5
2022-12-17T13:00:26.339Z,1013.4
2022-12-17T13:01:42.560Z,1013.5
2022-12-17T13:02:58.802Z,1013.5
2022-12-17T13:04:15.056Z,1013.4
2022-12-17T13:05:31.292Z,1013.4
2022-12-17T13:06:47.530Z,1013.5
2022-12-17T13:08:02.796Z,1013.5
2022-12-17T13:09:19.025Z,1013.5
2022-12-17T13:10:35.270Z,1013.5
2022-12-17T13:11:51.512Z,1013.5
2022-12-17T13:13:07.764Z,1013.5
2022-12-17T13:14:23.994Z,1013.5
2022-12-17T13:15:40.230Z,1013.5
2022-12-17T13:16:56.478Z,1013.6
2022-12-17T13:18:12.719Z,1013.5
2022-12-17T13:19:28.967Z,1013.6
2022-12-17T13:20:45.213Z,1013.6
2022-12-17T13:22:01.448Z,1013.6
2022-12-17T13:23:17.678Z,1013.6
2022-12-17T13:24:32.945Z,1013.7
2022-12-17T13:25:49.175Z,1013.7
2022-12-17T13:27:05.423Z,1013.7
2022-12-17T13:28:21.666Z,1013.7
2022-12-17T13:29:37.904Z,1013.7
2022-12-17T13:30:54.153Z,1013.7
2022-12-17T13:32:10.390Z,1013.7
2022-12-17T13:33:26.630Z,1013.7
2022-12-17T13:34:42.877Z,1013.7
2022-12-17T13:35:59.115Z,1013.7
2022-12-17T13:37:15.348Z,1013.8
2022-12-17T13:38:31.603Z,1013.8
2022-12-17T13:39:47.842Z,1013.8
2022-12-17T13:41:03.085Z,1013.8
2022-12-17T13:42:19.327Z,1013.8
2022-12-17T13:43:35.570Z,1013.8
2022-12-17T13:44:51.807Z,1013.8
2022-12-17T13:46:08.061Z,1013.8
2022-12-17T13:47:24.293Z,1013.8
2022-12-17T13:48:40.534Z,1013.8
2022-12-17T13:49:56.771Z,1013.8
2022-12-17T13:51:13.020Z,1014
2022-12-17T13:52:29.264Z,1013.9
2022-12-17T13:53:45.494Z,1013.9
2022-12-17T13:55:01.739Z,1013.9
2022-12-17T13:56:17.974Z,1014
2022-12-17T13:57:33.241Z,1013.9
2022-12-17T13:58:49.482Z,1014
2022-12-17T14:00:05.725Z,1014
2022-12-17T14:02:38.213Z,1014
2022-12-17T14:03:54.441Z,1014
2022-12-17T14:05:10.691Z,1014
2022-12-17T14:06:26.927Z,1014.1
2022-12-17T14:07:43.177Z,1014.2
2022-12-17T14:08:59.411Z,1014.2
2022-12-17T14:10:15.654Z,1014.2
2022-12-17T14:11:31.899Z,1014.3
2022-12-17T14:12:48.131Z,1014.2
2022-12-17T14:14:04.503Z,1014.3
2022-12-17T14:15:20.743Z,1014.3
2022-12-17T14:16:36.968Z,1014.3
2022-12-17T14:17:53.214Z,1014.3
2022-12-17T14:19:09.458Z,1014.3
2022-12-17T14:20:25.693Z,1014.3
2022-12-17T14:21:41.947Z,1014.3
2022-12-17T14:22:58.181Z,1014.4
2022-12-17T14:24:14.421Z,1014.4
2022-12-17T14:25:30.660Z,1014.3
2022-12-17T14:26:46.902Z,1014.3
2022-12-17T14:28:03.151Z,1014.3
2022-12-17T14:29:19.385Z,1014.3
2022-12-17T14:30:34.658Z,1014.3
2022-12-17T14:31:50.893Z,1014.3
2022-12-17T14:33:07.129Z,1014.3
2022-12-17T14:34:23.370Z,1014.3
2022-12-17T14:35:39.613Z,1014.3
2022-12-17T14:36:55.857Z,1014.4
2022-12-17T14:38:12.089Z,1014.4
2022-12-17T14:39:28.348Z,1014.4
2022-12-17T14:40:44.577Z,1014.4
2022-12-17T14:42:00.000Z,1014.4
2022-12-17T14:43:17.050Z,1014.4
2022-12-17T14:44:33.293Z,1014.4
2022-12-17T14:45:49.530Z,1014.4
2022-12-17T14:47:04.792Z,1014.5
2022-12-17T14:48:21.035Z,1014.4
2022-12-17T14:49:37.286Z,1014.4
2022-12-17T14:50:53.517Z,1014.5
2022-12-17T14:52:09.764Z,1014.5
2022-12-17T14:53:26.015Z,1014.6
2022-12-17T14:54:42.234Z,1014.5
2022-12-17T14:55:58.483Z,1014.5
2022-12-17T14:57:14.721Z,1014.5
2022-12-17T14:58:30.960Z,1014.5
2022-12-17T14:59:47.221Z,1014.6
2022-12-17T15:01:03.450Z,1014.5
2022-12-17T15:02:19.699Z,1014.6
2022-12-17T15:03:34.943Z,1014.6
2022-12-17T15:04:51.193Z,1014.6
2022-12-17T15:06:07.439Z,1014.6
2022-12-17T15:07:23.668Z,1014.6
2022-12-17T15:08:39.909Z,1014.6
2022-12-17T15:09:56.144Z,1014.6
2022-12-17T15:11:11.414Z,1014.6
2022-12-17T15:12:27.651Z,1014.6
2022-12-17T15:13:43.888Z,1014.6
2022-12-17T15:15:00.134Z,1014.7
2022-12-17T15:16:16.379Z,1014.6
2022-12-17T15:17:32.611Z,1014.6
2022-12-17T15:18:48.859Z,1014.6
2022-12-17T15:20:05.106Z,1014.6
2022-12-17T15:21:21.342Z,1014.7
2022-12-17T15:22:37.582Z,1014.7
2022-12-17T15:23:53.831Z,1014.7
2022-12-17T15:25:10.071Z,1014.7
2022-12-17T15:26:26.301Z,1014.7
2022-12-17T15:27:41.562Z,1014.7
2022-12-17T15:28:57.801Z,1014.7
2022-12-17T15:30:14.038Z,1014.7
2022-12-17T15:31:30.336Z,1014.7
2022-12-17T15:32:46.635Z,1014.6
2022-12-17T15:34:02.876Z,1014.7
2022-12-17T15:35:19.130Z,1014.7
2022-12-17T15:36:35.353Z,1014.7
2022-12-17T15:37:51.664Z,1014.7
2022-12-17T15:39:07.949Z,1014.8
2022-12-17T15:40:24.000Z,1014.7
2022-12-17T15:41:40.532Z,1014.8
2022-12-17T15:42:56.844Z,1014.8
2022-12-17T15:44:12.151Z,1014.8
2022-12-17T15:46:44.735Z,1014.8
2022-12-17T15:48:01.037Z,1014.8
2022-12-17T15:49:17.320Z,1014.7
2022-12-17T15:50:33.624Z,1014.8
2022-12-17T15:51:49.922Z,1014.8
2022-12-17T15:53:06.209Z,1014.9
2022-12-17T15:54:22.507Z,1014.8
2022-12-17T15:55:38.804Z,1014.9
2022-12-17T15:56:55.099Z,1014.8
2022-12-17T15:58:11.394Z,1014.9
2022-12-17T15:59:27.689Z,1014.9
2022-12-17T16:00:42.999Z,1015
2022-12-17T16:01:59.288Z,1015
2022-12-17T16:03:15.599Z,1015
2022-12-17T16:04:31.886Z,1015
2022-12-17T16:05:48.179Z,1015
2022-12-17T16:07:04.478Z,1015
2022-12-17T16:08:20.766Z,1015
2022-12-17T16:09:37.057Z,1015.1
2022-12-17T16:10:53.369Z,1015.1